Terminal Aerodrome Forecast
Issued by NWS Wakefield, VA

Home | Current Version | Previous Version | Text Only | Print | Product List | Glossary On
Versions: 1 2 3 4 5 6 7 8 9 10 11 12
000
FTUS41 KAKQ 061734
TAFSBY
TAF
KSBY 061734Z 0618/0718 15006KT P6SM SCT050 SCT120
     FM070000 10004KT P6SM SCT050 BKN250
     FM070400 07003KT P6SM BKN080
     FM071500 09005KT P6SM SCT050=

USA.gov is the U.S. government's official web portal to all federal, state and local government web resources and services.